Time;durP1;ratioP1;P1;durP2;ratioP2;P2;SDS_P1;SDS_P2;PMS_P1;PMS_P2;Temp;Humidity;BMP_temperature;BMP_pressure;BME280_temperature;BME280_humidity;BME280_pressure;Samples;Min_cycle;Max_cycle;Signal;HPM_P1;HPM_P2
2023/09/22 06:58:29;;;;;;;32.20;17.40;;;;;;;20.37;61.80;100502.34;5282323;23;20021;31
2023/09/22 07:35:56;;;;;;;30.77;15.35;;;;;;;21.02;58.79;100468.91;4967304;29;20099;-90
2023/09/22 07:38:46;;;;;;;37.88;14.02;;;;;;;21.01;58.39;100458.94;4955103;29;20046;-92
2023/09/22 07:41:21;;;;;;;24.02;14.02;;;;;;;21.26;57.20;100495.78;5004748;23;20110;-90
2023/09/22 07:44:44;;;;;;;33.17;13.65;;;;;;;21.46;56.24;100516.22;4918184;29;20067;-91
2023/09/22 07:47:10;;;;;;;24.92;14.20;;;;;;;21.29;56.22;100483.13;4916342;29;20052;-93
2023/09/22 07:49:40;;;;;;;38.53;13.38;;;;;;;21.59;54.88;100525.28;4915499;29;20032;-93
2023/09/22 07:53:30;;;;;;;44.10;13.15;;;;;;;21.70;55.59;100522.78;4907459;29;20059;-91
2023/09/22 07:56:04;;;;;;;26.57;12.60;;;;;;;21.39;54.35;100467.91;4933832;29;20127;-90
2023/09/22 07:58:36;;;;;;;21.98;12.02;;;;;;;21.80;54.04;100525.03;4921542;29;20027;-90
2023/09/22 08:01:07;;;;;;;44.97;12.25;;;;;;;21.75;53.12;100509.38;4908224;29;20047;-89
2023/09/22 08:03:51;;;;;;;18.20;11.40;;;;;;;21.67;52.71;100488.13;4916299;29;20090;-91
2023/09/22 08:06:21;;;;;;;23.83;11.80;;;;;;;21.84;52.91;100494.50;4919635;29;20035;-89
2023/09/22 08:12:08;;;;;;;95.20;12.57;;;;;;;22.04;51.04;100515.66;4869739;29;20602;-90
2023/09/22 08:14:36;;;;;;;19.25;10.95;;;;;;;22.11;50.50;100531.75;4855320;29;20056;-90
2023/09/22 08:17:12;;;;;;;32.88;11.82;;;;;;;21.97;50.45;100499.59;4838983;29;20182;-89
2023/09/22 08:20:12;;;;;;;17.67;10.20;;;;;;;22.25;50.08;100530.13;4838462;29;20436;-90
2023/09/22 08:22:40;;;;;;;19.75;10.70;;;;;;;22.31;50.62;100532.63;4855796;29;20093;-91
2023/09/22 08:25:56;;;;;;;23.55;12.20;;;;;;;22.07;50.53;100487.09;4787073;30;20063;-92
2023/09/22 08:28:50;;;;;;;24.20;11.40;;;;;;;22.50;54.36;100530.69;4765061;30;20050;-91
2023/09/22 08:31:17;;;;;;;25.77;10.15;;;;;;;22.57;48.26;100516.09;4782170;30;20062;-90
2023/09/22 08:33:44;;;;;;;42.75;11.35;;;;;;;22.49;49.37;100497.63;4782028;30;20056;-90
2023/09/22 08:36:15;;;;;;;24.30;10.93;;;;;;;22.27;47.95;100463.72;4784158;30;20055;-93
2023/09/22 08:39:08;;;;;;;20.60;10.43;;;;;;;22.71;46.58;100527.59;4771205;30;20043;-92
2023/09/22 08:41:40;;;;;;;21.58;9.55;;;;;;;22.19;46.68;100442.44;4755149;30;20056;-90
2023/09/22 08:44:42;;;;;;;16.45;9.88;;;;;;;22.87;46.23;100529.47;4764721;30;20064;-89
2023/09/22 08:47:11;;;;;;;27.13;9.80;;;;;;;22.74;45.84;100509.28;4748377;30;20094;-90
2023/09/22 08:50:45;;;;;;;188.80;14.65;;;;;;;22.95;46.47;100531.28;4762461;30;20114;-90
2023/09/22 08:53:13;;;;;;;30.00;10.20;;;;;;;22.83;45.07;100498.75;4751047;30;20089;-89
2023/09/22 08:55:49;;;;;;;54.38;9.60;;;;;;;22.51;45.45;100447.88;4747808;30;20064;-93
2023/09/22 08:58:41;;;;;;;24.40;8.70;;;;;;;23.11;44.94;100532.03;4766747;30;20873;-92
2023/09/22 09:01:10;;;;;;;44.83;11.13;;;;;;;23.18;45.46;100523.78;4771897;30;20083;-91
2023/09/22 09:03:38;;;;;;;28.77;9.70;;;;;;;22.97;44.06;100489.88;4819967;29;20062;-91
2023/09/22 09:06:25;;;;;;;31.23;9.25;;;;;;;23.07;45.10;100489.28;4804571;29;20043;-93
2023/09/22 09:09:12;;;;;;;16.38;7.97;;;;;;;23.16;43.77;100492.66;4806864;29;20050;-92
2023/09/22 09:12:06;;;;;;;12.90;8.65;;;;;;;23.43;44.02;100524.22;4779281;29;20155;-90
2023/09/22 09:15:48;;;;;;;104.13;14.93;;;;;;;23.16;43.40;100469.53;4874555;29;20584;-90
2023/09/22 09:18:45;;;;;;;21.75;7.80;;;;;;;23.62;40.42;100526.19;4858515;29;20067;-93
2023/09/22 09:21:16;;;;;;;22.73;8.15;;;;;;;23.37;41.13;100474.69;4858577;29;20053;-91
2023/09/22 09:34:19;;;;;;;22.40;9.52;;;;;;;24.16;44.65;100471.19;4923403;29;20039;-91
2023/09/22 09:38:14;;;;;;;22.00;9.10;;;;;;;24.89;42.64;100521.31;4905354;29;20089;-91
2023/09/22 09:41:10;;;;;;;22.83;8.10;;;;;;;24.75;37.58;100466.03;4887962;29;20149;-90
2023/09/22 09:43:46;;;;;;;21.98;10.23;;;;;;;25.15;40.26;100507.28;4846231;29;20068;-88
2023/09/22 09:46:16;;;;;;;21.47;8.83;;;;;;;24.71;35.75;100440.81;4887834;29;20096;-94
2023/09/22 09:49:11;;;;;;;23.65;8.20;;;;;;;25.36;39.18;100514.28;4888182;29;20321;-87
2023/09/22 09:51:52;;;;;;;28.35;9.13;;;;;;;24.85;36.81;100435.38;4876583;29;20041;-86
2023/09/22 09:54:21;;;;;;;13.88;8.23;;;;;;;25.31;38.28;100499.44;4894789;29;20056;-92
2023/09/22 09:57:05;;;;;;;13.75;7.18;;;;;;;24.82;36.44;100418.56;4894186;29;20045;-91
2023/09/22 09:59:38;;;;;;;12.20;8.10;;;;;;;25.37;36.71;100476.72;4893231;29;20048;-91
2023/09/22 10:02:41;;;;;;;15.88;7.28;;;;;;;25.84;34.62;100509.56;4881471;29;20055;-92
2023/09/22 10:12:01;;;;;;;14.15;7.70;;;;;;;25.97;32.81;100510.88;1635122;23;21372;-92
2023/09/22 10:14:53;;;;;;;19.30;7.72;;;;;;;25.63;33.43;100456.13;4881651;29;20056;-91
2023/09/22 10:21:51;;;;;;;22.27;9.23;;;;;;;25.92;32.36;100500.00;5041227;23;20055;-92
2023/09/22 10:27:31;;;;;;;17.33;8.43;;;;;;;25.02;31.92;100449.94;2799621;23;20425;-90
2023/09/22 10:38:25;;;;;;;22.60;9.30;;;;;;;25.19;33.28;100488.53;5012501;23;20024;31
2023/09/22 10:55:07;;;;;;;14.20;9.70;;;;;;;25.48;32.62;100436.41;4949847;29;20048;-90
2023/09/22 10:57:36;;;;;;;20.55;9.40;;;;;;;25.85;33.60;100490.75;4934287;29;20036;-91
2023/09/22 11:03:08;;;;;;;16.23;8.27;;;;;;;25.82;33.35;100439.09;4957180;23;20076;-88
2023/09/22 11:06:17;;;;;;;29.27;8.77;;;;;;;25.93;33.75;100437.19;4931060;29;20047;-90
2023/09/22 11:11:31;;;;;;;18.65;9.05;;;;;;;25.72;33.09;100390.19;4985491;23;20154;-89
2023/09/22 11:14:24;;;;;;;14.93;9.30;;;;;;;26.18;32.40;100473.78;4915083;29;20055;-90
2023/09/22 11:17:18;;;;;;;16.52;8.80;;;;;;;25.76;31.36;100437.81;4928686;29;20027;-91
2023/09/22 11:20:21;;;;;;;18.20;10.38;;;;;;;25.86;31.43;100442.75;4911976;29;20044;-91
2023/09/22 11:23:39;;;;;;;17.80;10.85;;;;;;;26.06;31.71;100470.50;4893419;29;20072;-91
2023/09/22 11:27:02;;;;;;;12.90;9.27;;;;;;;25.72;32.25;100432.19;4899806;29;20108;-91
2023/09/22 11:29:39;;;;;;;21.95;8.75;;;;;;;25.67;31.72;100429.78;4894010;29;20044;-87
2023/09/22 11:32:08;;;;;;;22.98;12.52;;;;;;;25.50;31.35;100422.84;4893267;29;20092;-85
2023/09/22 11:35:04;;;;;;;35.53;13.63;;;;;;;25.90;31.31;100465.19;4952114;23;20059;-93
2023/09/22 11:46:55;;;;;;;16.85;10.13;;;;;;;25.71;32.29;100374.59;4974131;28;20027;-94
2023/09/22 12:00:54;;;;;;;22.85;10.68;;;;;;;26.43;32.16;100454.31;4866609;29;20064;-93
2023/09/22 12:03:23;;;;;;;18.42;9.05;;;;;;;26.10;32.16;100396.47;4823525;29;20050;-89
2023/09/22 12:06:05;;;;;;;19.63;9.90;;;;;;;25.96;32.34;100373.94;4855663;29;20053;-93
2023/09/22 12:08:58;;;;;;;26.35;9.63;;;;;;;26.46;31.95;100453.50;4922789;23;20055;-90
2023/09/22 12:12:09;;;;;;;18.70;8.55;;;;;;;26.14;31.51;100393.69;4970945;29;20062;-91
2023/09/22 12:14:43;;;;;;;28.98;8.65;;;;;;;26.36;31.48;100415.03;4884634;29;20055;-91
2023/09/22 12:17:21;;;;;;;12.75;8.70;;;;;;;26.31;31.52;100395.75;4882578;29;20048;-90
2023/09/22 12:22:57;;;;;;;44.55;12.15;;;;;;;26.37;30.89;100432.63;4905881;29;20055;-90
2023/09/22 12:25:24;;;;;;;13.15;8.10;;;;;;;26.06;30.70;100420.88;4920756;29;20031;-89
2023/09/22 12:28:10;;;;;;;10.95;6.47;;;;;;;26.12;29.66;100430.50;4913869;29;20023;-88
2023/09/22 12:30:44;;;;;;;18.00;7.20;;;;;;;25.90;30.90;100401.56;4897738;29;20048;-91
2023/09/22 12:33:19;;;;;;;18.63;7.25;;;;;;;25.76;30.15;100390.22;4934716;29;20564;-92
2023/09/22 12:44:08;;;;;;;16.13;8.45;;;;;;;25.76;30.64;100387.41;4892237;29;20108;-88
2023/09/22 12:46:38;;;;;;;23.40;7.20;;;;;;;25.76;29.41;100393.00;4875250;29;20044;-88
2023/09/22 12:49:11;;;;;;;18.90;7.00;;;;;;;25.84;30.07;100400.31;4907062;29;20033;-91
2023/09/22 12:51:39;;;;;;;15.85;6.40;;;;;;;25.55;30.52;100368.47;4893254;29;20060;-90
2023/09/22 12:54:06;;;;;;;36.88;9.38;;;;;;;25.78;31.99;100404.63;4884853;29;20041;-86
2023/09/22 12:57:39;;;;;;;28.05;8.57;;;;;;;25.95;30.20;100412.38;4904673;29;20600;-90
2023/09/22 13:00:10;;;;;;;15.93;9.73;;;;;;;25.68;30.46;100380.97;4916940;29;20055;-88
2023/09/22 13:03:51;;;;;;;12.00;6.35;;;;;;;25.23;30.55;100315.03;4920291;29;20080;-91
2023/09/22 13:06:25;;;;;;;33.05;12.48;;;;;;;25.61;30.69;100385.72;4897298;29;20131;-89
2023/09/22 13:09:01;;;;;;;24.38;15.82;;;;;;;25.48;30.43;100380.44;4914527;29;20084;-90
2023/09/22 13:15:51;;;;;;;14.10;8.30;;;;;;;25.62;30.04;100402.13;4858647;29;19934;-93
2023/09/22 13:18:23;;;;;;;16.90;8.07;;;;;;;25.01;30.34;100314.84;4880718;29;20053;-92
2023/09/22 13:21:34;;;;;;;11.93;7.03;;;;;;;25.51;29.96;100399.25;4888698;29;20638;-86
2023/09/22 13:24:16;;;;;;;12.27;6.80;;;;;;;25.07;29.92;100352.47;4872540;29;20058;-90
2023/09/22 13:26:46;;;;;;;27.35;10.35;;;;;;;25.04;30.18;100344.06;4896412;29;20055;-89
2023/09/22 13:29:13;;;;;;;64.97;23.42;;;;;;;25.02;31.08;100346.44;4883100;29;20041;-92
2023/09/22 13:31:41;;;;;;;54.15;14.30;;;;;;;25.03;30.79;100348.03;4915546;23;20066;-88
2023/09/22 13:34:13;;;;;;;37.03;11.98;;;;;;;25.12;31.26;100365.34;4924816;29;20044;-91
2023/09/22 13:36:43;;;;;;;29.45;10.05;;;;;;;25.12;31.82;100370.13;4891671;29;20043;-91
2023/09/22 13:39:26;;;;;;;27.40;7.57;;;;;;;24.86;32.57;100338.28;4893578;29;20094;-90
2023/09/22 13:41:54;;;;;;;27.65;11.85;;;;;;;25.21;30.63;100396.59;4896616;23;20044;-87
2023/09/22 13:44:20;;;;;;;26.38;12.65;;;;;;;25.11;32.62;100376.91;4912737;29;20036;-91
2023/09/22 13:46:50;;;;;;;33.15;10.35;;;;;;;25.14;31.30;100387.34;4907429;29;20085;-89
2023/09/22 13:49:19;;;;;;;51.75;25.83;;;;;;;24.99;30.04;100372.38;4938671;29;20040;-91
2023/09/22 13:52:11;;;;;;;185.18;27.50;;;;;;;25.04;29.93;100392.41;4901708;29;20051;-86
2023/09/22 13:54:43;;;;;;;47.42;18.65;;;;;;;24.52;30.96;100318.78;4921745;29;20048;-91
2023/09/22 13:57:25;;;;;;;39.03;13.30;;;;;;;24.91;30.85;100388.28;4898274;29;20039;-88
2023/09/22 13:59:54;;;;;;;26.20;9.07;;;;;;;24.98;37.68;100365.97;4924964;29;20032;-87
2023/09/22 14:02:20;;;;;;;28.35;9.93;;;;;;;25.08;36.78;100370.88;4934987;29;20043;-89
2023/09/22 14:04:53;;;;;;;26.45;9.73;;;;;;;24.96;33.66;100337.56;4935249;29;20046;-89
2023/09/22 14:07:20;;;;;;;21.80;7.07;;;;;;;24.79;32.37;100324.22;4921107;29;20075;-86
2023/09/22 14:10:02;;;;;;;19.05;6.22;;;;;;;24.65;31.30;100324.91;4921758;29;20446;-90
2023/09/22 14:12:31;;;;;;;19.70;7.90;;;;;;;24.95;34.46;100382.72;4937815;29;20050;-90
2023/09/22 14:14:57;;;;;;;26.73;10.77;;;;;;;24.83;32.76;100359.47;4946750;29;20027;-89
2023/09/22 14:17:24;;;;;;;18.65;7.38;;;;;;;24.90;33.54;100377.47;4919130;29;20059;-92
2023/09/22 14:19:50;;;;;;;30.42;9.07;;;;;;;24.65;35.24;100352.88;4891894;29;20213;-88
2023/09/22 14:22:59;;;;;;;29.83;5.97;;;;;;;24.82;33.38;100379.41;4902901;23;20048;-90
2023/09/22 14:25:37;;;;;;;17.08;7.15;;;;;;;24.50;35.08;100343.53;4889256;29;20116;-90
2023/09/22 14:28:07;;;;;;;;;;;;;;;24.61;31.85;100375.19;4874506;29;20040;-91
2023/09/22 14:30:40;;;;;;;17.75;7.60;;;;;;;24.02;33.34;100304.19;4890819;29;20420;-89
2023/09/22 14:33:20;;;;;;;27.73;8.40;;;;;;;24.20;34.00;100345.50;4905384;29;20033;-91
2023/09/22 14:35:48;;;;;;;28.55;7.53;;;;;;;23.75;35.31;100306.25;4907732;29;20031;-89
2023/09/22 14:38:40;;;;;;;15.32;6.63;;;;;;;24.07;36.17;100373.72;4876354;29;20065;-90
2023/09/22 14:41:10;;;;;;;26.20;7.63;;;;;;;23.68;35.06;100320.13;4839382;29;20678;-92
2023/09/22 14:43:36;;;;;;;116.50;46.88;;;;;;;23.57;35.32;100330.28;4822869;29;20054;-90
2023/09/22 14:46:05;;;;;;;556.13;251.00;;;;;;;23.18;36.12;100306.19;4825684;29;20146;-90
2023/09/22 14:48:40;;;;;;;546.40;246.50;;;;;;;23.29;36.80;100350.19;4805639;29;20042;-90
2023/09/22 14:51:16;;;;;;;306.77;110.90;;;;;;;23.18;36.40;100359.19;4837954;29;20050;-85
2023/09/22 14:53:45;;;;;;;138.52;47.20;;;;;;;23.02;35.70;100366.88;4823602;29;20663;-91
2023/09/22 14:56:51;;;;;;;72.13;20.88;;;;;;;23.08;35.65;100389.66;4814308;29;20055;-89
2023/09/22 14:59:18;;;;;;;51.08;18.45;;;;;;;22.78;36.41;100358.81;4794402;29;20219;-89
2023/09/22 15:01:45;;;;;;;100.10;28.02;;;;;;;22.82;37.28;100382.81;4826729;29;20073;-89
2023/09/22 15:04:13;;;;;;;137.57;41.63;;;;;;;22.38;37.12;100338.56;4817697;29;20050;-89
2023/09/22 15:06:58;;;;;;;192.25;68.20;;;;;;;22.01;37.61;100294.44;4836375;29;20069;-88
2023/09/22 15:09:58;;;;;;;125.13;62.33;;;;;;;21.83;36.75;100278.53;4828949;29;20049;-86
2023/09/22 15:12:29;;;;;;;120.85;58.70;;;;;;;22.02;37.35;100321.13;4886441;29;20545;-89
2023/09/22 15:15:01;;;;;;;58.47;25.77;;;;;;;22.09;37.26;100350.28;4877851;29;20131;-86
2023/09/22 15:28:03;;;;;;;32.80;12.25;;;;;;;21.54;38.21;100367.75;4906927;29;20054;-86
2023/09/22 15:30:30;;;;;;;38.53;11.23;;;;;;;21.68;38.77;100402.66;4932105;29;20047;-86
2023/09/22 15:33:04;;;;;;;25.45;10.30;;;;;;;21.02;38.74;100307.66;4940606;29;20036;-86
2023/09/22 15:35:33;;;;;;;37.25;11.35;;;;;;;21.11;38.75;100343.63;4940324;29;20059;-87
2023/09/22 15:38:30;;;;;;;28.52;10.13;;;;;;;20.82;39.24;100303.97;4928784;29;20912;-88
2023/09/22 15:41:21;;;;;;;31.60;10.00;;;;;;;21.28;39.56;100393.31;4931015;29;20047;-86
2023/09/22 15:43:48;;;;;;;34.97;10.10;;;;;;;21.10;39.30;100378.97;4917846;29;20039;-85
2023/09/22 15:46:14;;;;;;;42.95;9.73;;;;;;;20.80;39.27;100341.66;4925922;29;20039;-87
2023/09/22 15:48:42;;;;;;;32.58;9.00;;;;;;;20.86;39.57;100363.25;4915904;29;20584;-87
2023/09/22 15:51:43;;;;;;;19.02;8.18;;;;;;;20.50;40.01;100322.56;4917149;29;20520;-84
2023/09/22 15:54:21;;;;;;;40.95;9.10;;;;;;;20.74;39.58;100377.22;4923619;29;20050;-85
2023/09/22 15:56:48;;;;;;;22.83;7.78;;;;;;;20.76;39.83;100379.63;4937464;29;20048;-85
2023/09/22 15:59:15;;;;;;;29.92;9.73;;;;;;;20.69;40.18;100383.03;4944390;29;20505;-86
2023/09/22 16:02:13;;;;;;;40.15;9.65;;;;;;;20.78;41.08;100407.88;4937838;29;20054;-86
2023/09/22 16:04:58;;;;;;;33.35;12.70;;;;;;;20.75;41.19;100416.94;4932950;29;20054;-88
2023/09/22 16:07:36;;;;;;;43.13;14.55;;;;;;;20.24;41.68;100353.56;4926257;29;21602;-87
2023/09/22 16:10:11;;;;;;;46.90;16.83;;;;;;;20.32;41.85;100379.56;4943407;29;20059;-88
2023/09/22 16:12:37;;;;;;;46.60;16.27;;;;;;;20.31;42.50;100401.00;4898817;29;20078;-87
2023/09/22 16:15:15;;;;;;;36.25;11.68;;;;;;;19.95;41.86;100361.06;4933380;29;20028;-85
2023/09/22 16:18:05;;;;;;;37.20;10.65;;;;;;;20.27;42.29;100425.06;4937866;29;20074;-86
2023/09/22 16:20:44;;;;;;;28.70;11.25;;;;;;;19.97;43.40;100391.25;4810744;29;20080;-86
2023/09/22 16:23:13;;;;;;;50.10;11.32;;;;;;;20.15;43.73;100420.34;4837474;29;20053;-85
2023/09/22 16:25:40;;;;;;;63.00;11.77;;;;;;;20.09;43.45;100424.53;4823886;29;20054;-85
2023/09/22 16:28:06;;;;;;;64.63;12.35;;;;;;;20.00;43.58;100423.88;4829781;29;20618;-88
2023/09/22 16:30:37;;;;;;;52.80;12.17;;;;;;;19.99;43.21;100421.41;4845721;29;20046;-86
2023/09/22 16:33:04;;;;;;;53.78;12.00;;;;;;;19.93;43.20;100424.44;4833430;29;20710;-88
2023/09/22 16:35:30;;;;;;;54.35;13.52;;;;;;;19.61;43.14;100375.44;4842346;29;20042;-87
2023/09/22 16:37:59;;;;;;;45.97;15.43;;;;;;;19.89;43.26;100428.25;4838885;29;20092;-88
2023/09/22 16:40:25;;;;;;;;;;;;;;;19.85;42.91;100425.38;4837741;29;20851;-90
2023/09/22 16:42:52;;;;;;;34.55;16.98;;;;;;;19.82;43.13;100430.81;4837051;29;19959;-88
2023/09/22 16:45:19;;;;;;;43.65;15.30;;;;;;;19.74;44.44;100418.69;4837268;29;20061;-85
2023/09/22 16:47:45;;;;;;;30.50;11.23;;;;;;;19.65;43.17;100404.13;4821089;29;20065;-85
2023/09/22 16:50:14;;;;;;;37.13;11.27;;;;;;;19.87;46.43;100436.13;4814618;29;20058;-85
2023/09/22 16:52:45;;;;;;;33.10;9.55;;;;;;;19.81;43.37;100424.47;4813162;29;20090;-86
2023/09/22 16:55:11;;;;;;;28.08;9.07;;;;;;;;;;4797312;29;20086;-85
2023/09/22 16:57:37;;;;;;;49.63;10.23;;;;;;;19.58;44.58;100409.41;4890835;29;20060;-86
2023/09/22 17:00:05;;;;;;;27.95;8.98;;;;;;;19.69;44.48;100441.91;4919976;29;20044;-86
2023/09/22 17:02:32;;;;;;;22.88;9.50;;;;;;;19.51;44.41;100420.28;4931470;29;20534;-86
2023/09/22 17:04:58;;;;;;;;;;;;;;;19.58;44.40;100437.16;4914157;29;20144;-85
2023/09/22 17:07:24;;;;;;;21.30;8.95;;;;;;;19.48;45.28;100430.09;4938082;29;19966;-89
2023/09/22 17:10:17;;;;;;;54.22;10.13;;;;;;;19.46;45.77;100435.16;4905101;29;20052;-89
2023/09/22 17:12:45;;;;;;;38.30;8.80;;;;;;;19.10;45.52;100388.78;4935420;29;20052;-87
2023/09/22 17:15:11;;;;;;;47.20;9.00;;;;;;;19.33;46.03;100437.09;4938599;29;20410;-86
2023/09/22 17:17:37;;;;;;;39.77;9.40;;;;;;;19.15;46.39;100421.84;4927029;29;20044;-89
2023/09/22 17:20:10;;;;;;;35.45;8.52;;;;;;;18.71;46.00;100355.00;4931705;29;20299;-89
2023/09/22 17:22:36;;;;;;;24.88;8.73;;;;;;;19.17;45.52;100434.22;4939740;29;20111;-87
2023/09/22 17:25:27;;;;;;;23.77;8.68;;;;;;;18.97;45.49;100402.66;4928310;29;20106;-86
2023/09/22 17:27:58;;;;;;;27.98;8.77;;;;;;;18.81;46.19;100387.00;4906503;29;20043;-87
2023/09/22 17:31:03;;;;;;;21.80;8.00;;;;;;;19.10;46.27;100441.47;4907526;29;20050;-88
2023/09/22 17:33:30;;;;;;;38.97;9.32;;;;;;;18.88;46.65;100403.91;4907593;29;20063;-86
2023/09/22 17:36:00;;;;;;;30.45;7.43;;;;;;;18.41;46.39;100357.91;4920706;29;20043;-86
2023/09/22 17:38:26;;;;;;;19.30;7.90;;;;;;;18.83;46.76;100429.84;4946695;29;20044;-87
2023/09/22 17:41:01;;;;;;;33.13;7.75;;;;;;;18.96;46.90;100456.44;4935667;29;20043;-89
2023/09/22 17:43:29;;;;;;;18.05;8.15;;;;;;;18.44;47.41;100368.28;4933572;29;20051;-86
2023/09/22 17:46:54;;;;;;;31.25;7.75;;;;;;;18.89;47.69;100444.28;4910514;29;20060;-86
2023/09/22 17:49:34;;;;;;;;;;;;;;;18.84;47.93;100445.34;4905274;29;20131;-86
2023/09/22 17:52:10;;;;;;;32.95;7.68;;;;;;;18.42;48.07;100386.38;4937614;29;19950;-88
2023/09/22 17:54:39;;;;;;;39.38;7.65;;;;;;;18.62;48.33;100429.03;4921622;29;20107;-86
2023/09/22 17:57:06;;;;;;;25.23;7.20;;;;;;;18.74;47.94;100446.56;4940176;29;20091;-89
2023/09/22 17:59:34;;;;;;;15.95;7.05;;;;;;;18.62;48.11;100432.63;4888715;29;20039;-85
2023/09/22 18:02:03;;;;;;;22.33;6.97;;;;;;;18.69;48.21;100443.16;4938449;29;20063;-87
2023/09/22 18:04:33;;;;;;;26.38;7.45;;;;;;;18.64;48.49;100437.81;4912785;29;20871;-86
2023/09/22 18:07:08;;;;;;;20.48;6.35;;;;;;;18.04;48.61;100357.69;4904871;29;20055;-86
2023/09/22 18:09:34;;;;;;;34.05;7.28;;;;;;;18.63;49.29;100447.28;4906438;29;20147;-86
2023/09/22 18:12:02;;;;;;;22.42;7.35;;;;;;;18.66;48.62;100447.41;4912538;29;20050;-84
2023/09/22 18:14:28;;;;;;;16.83;6.72;;;;;;;18.59;48.47;100438.84;4934729;29;20604;-87
2023/09/22 18:16:54;;;;;;;23.05;6.93;;;;;;;18.53;49.01;100440.19;4902733;29;20099;-88
2023/09/22 18:19:49;;;;;;;20.67;6.90;;;;;;;18.12;48.82;100369.06;4921343;29;20426;-89
2023/09/22 18:22:16;;;;;;;19.98;7.63;;;;;;;18.19;48.81;100385.94;4905845;29;20099;-87
2023/09/22 18:24:42;;;;;;;17.02;7.45;;;;;;;18.45;48.76;100422.50;4887129;29;20570;-87
2023/09/22 18:27:09;;;;;;;26.53;7.90;;;;;;;18.15;48.80;100377.50;4888294;29;20043;-86
2023/09/22 18:30:37;;;;;;;29.52;8.02;;;;;;;18.04;49.51;100359.66;4914329;29;20186;-89
2023/09/22 18:33:19;;;;;;;45.47;8.80;;;;;;;17.81;49.58;100343.41;4916474;29;20039;-88
2023/09/22 18:36:14;;;;;;;16.30;7.28;;;;;;;18.38;50.26;100435.28;4933252;29;20071;-89
2023/09/22 18:39:33;;;;;;;24.80;7.20;;;;;;;18.36;50.56;100449.44;4900145;29;20052;-86
2023/09/22 18:41:59;;;;;;;25.45;7.20;;;;;;;17.97;50.62;100387.88;4920933;29;20052;-90
2023/09/22 18:44:29;;;;;;;43.78;7.35;;;;;;;18.00;50.27;100398.25;4901212;29;20043;-87
2023/09/22 18:46:57;;;;;;;76.22;9.02;;;;;;;18.20;50.73;100429.88;4921497;29;20068;-88
2023/09/22 18:49:24;;;;;;;51.88;9.00;;;;;;;18.15;50.86;100424.53;4888079;29;20095;-89
2023/09/22 18:52:26;;;;;;;29.63;7.63;;;;;;;18.25;51.12;100439.94;4917461;29;20196;-86
2023/09/22 18:54:53;;;;;;;19.58;7.97;;;;;;;18.23;51.23;100439.47;4927864;29;20042;-85
2023/09/22 18:57:25;;;;;;;22.73;7.03;;;;;;;18.12;50.88;100427.97;4936232;29;20058;-87
2023/09/22 18:59:58;;;;;;;23.85;7.55;;;;;;;17.96;51.08;100402.84;4917044;29;20040;-88
2023/09/22 19:02:27;;;;;;;20.73;7.18;;;;;;;17.98;51.52;100402.50;4928381;29;20082;-89
2023/09/22 19:04:53;;;;;;;20.55;7.63;;;;;;;18.15;51.59;100440.34;4933490;29;20047;-87
2023/09/22 19:07:19;;;;;;;24.95;6.80;;;;;;;17.90;51.55;100406.97;4896919;29;20048;-84
2023/09/22 19:09:58;;;;;;;18.65;7.47;;;;;;;17.47;51.55;100344.41;4922159;29;20042;-88
2023/09/22 19:12:24;;;;;;;14.98;6.68;;;;;;;17.97;51.24;100421.06;4899686;29;20168;-88
2023/09/22 19:14:59;;;;;;;24.33;7.50;;;;;;;17.86;52.12;100411.56;4917409;29;20042;-87
2023/09/22 19:17:51;;;;;;;14.15;7.30;;;;;;;18.05;52.55;100447.09;4936737;29;20040;-87
2023/09/22 19:20:24;;;;;;;18.27;7.20;;;;;;;17.84;52.10;100428.47;4901073;29;20040;-87
2023/09/22 19:22:55;;;;;;;17.60;7.20;;;;;;;17.76;52.10;100417.44;4937610;29;20555;-86
2023/09/22 19:25:29;;;;;;;36.17;7.68;;;;;;;17.54;52.94;100390.88;4910840;29;20050;-88
2023/09/22 19:29:26;;;;;;;21.00;7.40;;;;;;;17.83;52.80;100456.47;4947484;29;20560;-87
2023/09/22 19:33:01;;;;;;;19.80;6.60;;;;;;;17.79;52.90;100445.28;4905836;29;20028;-88
2023/09/22 19:35:52;;;;;;;16.23;6.65;;;;;;;17.78;52.80;100446.44;4923606;29;20028;-88
2023/09/22 19:38:24;;;;;;;17.17;6.38;;;;;;;17.40;52.88;100393.06;4887714;29;20055;-89
2023/09/22 19:44:18;;;;;;;17.55;6.75;;;;;;;17.44;53.44;100405.88;4928936;29;20056;-90
2023/09/22 19:47:48;;;;;;;15.43;6.90;;;;;;;17.66;53.33;100451.00;4877102;29;20115;-91
2023/09/22 19:50:19;;;;;;;18.92;7.18;;;;;;;17.04;53.83;100370.28;4923680;29;20040;-89
2023/09/22 19:52:48;;;;;;;13.65;7.22;;;;;;;17.39;53.56;100419.91;4952968;29;20046;-89
2023/09/22 19:55:48;;;;;;;38.03;7.80;;;;;;;17.59;53.78;100454.28;4931197;29;20143;-88
2023/09/22 19:58:20;;;;;;;21.35;7.32;;;;;;;17.37;53.79;100430.47;4922441;29;20814;-87
2023/09/22 20:01:12;;;;;;;20.25;8.00;;;;;;;17.53;54.07;100458.38;4905650;29;20044;-89
2023/09/22 20:03:44;;;;;;;76.85;9.18;;;;;;;17.17;54.07;100398.03;4879418;29;20063;-87
2023/09/22 20:07:36;;;;;;;36.78;7.90;;;;;;;17.47;54.22;100457.75;4912589;29;21076;-88
2023/09/22 20:21:43;;;;;;;22.42;8.68;;;;;;;17.35;55.05;100454.84;4967321;29;20054;-90
2023/09/22 20:24:09;;;;;;;18.38;7.97;;;;;;;17.04;54.86;100424.72;4895639;23;20082;-89
2023/09/22 20:26:45;;;;;;;20.13;8.33;;;;;;;17.03;55.13;100423.94;4873319;29;20036;-89
2023/09/22 20:29:11;;;;;;;11.77;7.97;;;;;;;16.85;54.94;100394.72;4881317;29;20438;-89
2023/09/22 20:31:38;;;;;;;17.33;8.05;;;;;;;16.67;55.22;100369.88;4891346;29;20040;-89
2023/09/22 20:34:10;;;;;;;14.82;8.27;;;;;;;16.86;55.29;100401.88;4889524;29;20056;-90
2023/09/22 20:36:48;;;;;;;19.25;8.13;;;;;;;17.02;55.35;100424.25;4903951;29;20079;-92
2023/09/22 20:39:40;;;;;;;22.02;9.23;;;;;;;17.23;55.22;100460.28;4903415;29;20046;-93
2023/09/22 20:42:26;;;;;;;19.02;11.18;;;;;;;16.68;54.88;100377.00;4883416;29;20037;-93
2023/09/22 23:46:34;;;;;;;12.82;8.00;;;;;;;15.90;58.68;100492.06;5145708;23;20091;-91
2023/09/22 23:49:09;;;;;;;14.77;8.50;;;;;;;15.66;59.34;100457.44;4892106;29;20048;-93
2023/09/22 23:51:36;;;;;;;12.93;7.70;;;;;;;15.71;59.79;100470.28;4874577;29;20064;-94
2023/09/22 23:54:03;;;;;;;18.60;7.72;;;;;;;15.31;59.42;100403.31;4891504;29;20430;-95
2023/09/22 23:56:30;;;;;;;19.63;8.30;;;;;;;15.24;59.27;100403.75;4895330;29;20525;-95
2023/09/22 23:58:56;;;;;;;16.30;8.73;;;;;;;15.67;60.04;100452.75;4896486;29;20051;-94
